Time;durP1;ratioP1;P1;durP2;ratioP2;P2;SDS_P1;SDS_P2;PMS_P1;PMS_P2;Temp;Humidity;BMP_temperature;BMP_pressure;BME280_temperature;BME280_humidity;BME280_pressure;Samples;Min_cycle;Max_cycle;Signal;HPM_P1;HPM_P2
2023/03/27 00:00:58;;;;;;;10.15;5.07;;;25.40;99.90;;;;;;5093835;28;20020;-73
2023/03/27 00:03:26;;;;;;;8.07;4.78;;;25.50;99.90;;;;;;5093497;28;20464;-75
2023/03/27 00:05:59;;;;;;;10.45;4.32;;;25.40;99.90;;;;;;5076106;28;20037;-70
2023/03/27 00:08:26;;;;;;;7.80;3.83;;;25.40;99.90;;;;;;5063683;28;20036;-69
2023/03/27 00:10:53;;;;;;;12.57;4.63;;;25.40;99.90;;;;;;5057068;28;20020;-71
2023/03/27 00:13:19;;;;;;;6.32;4.28;;;25.50;99.90;;;;;;5073081;28;20032;-72
2023/03/27 00:15:46;;;;;;;6.40;4.00;;;25.60;99.90;;;;;;5073202;28;20029;-71
2023/03/27 00:18:14;;;;;;;7.45;4.28;;;25.50;99.90;;;;;;5062328;28;20017;-74
2023/03/27 00:20:41;;;;;;;8.23;4.70;;;25.60;99.90;;;;;;5053142;28;20082;-71
2023/03/27 00:23:08;;;;;;;8.95;5.03;;;25.60;99.90;;;;;;5052777;28;20108;-70
2023/03/27 00:25:34;;;;;;;6.35;4.03;;;25.60;99.90;;;;;;5052922;28;20029;-69
2023/03/27 00:28:01;;;;;;;10.63;5.13;;;25.60;99.90;;;;;;5052937;28;20040;-70
2023/03/27 00:30:29;;;;;;;9.90;5.55;;;25.60;99.90;;;;;;5053065;28;20049;-69
2023/03/27 00:32:57;;;;;;;7.22;5.68;;;25.60;99.90;;;;;;5053032;28;20067;-69
2023/03/27 00:35:26;;;;;;;7.70;6.07;;;25.70;99.90;;;;;;5053076;28;20075;-68
2023/03/27 00:37:53;;;;;;;10.25;6.80;;;25.70;99.90;;;;;;5053153;28;20386;-68
2023/03/27 00:40:19;;;;;;;10.80;8.88;;;25.70;99.90;;;;;;5052823;28;20100;-69
2023/03/27 00:42:48;;;;;;;14.90;11.13;;;25.80;99.90;;;;;;5053151;28;20108;-71
2023/03/27 00:45:19;;;;;;;14.23;10.50;;;25.50;99.90;;;;;;5052832;28;20017;-68
2023/03/27 00:47:52;;;;;;;15.10;7.72;;;25.50;99.90;;;;;;5071000;28;20040;-71
2023/03/27 00:50:24;;;;;;;8.52;6.40;;;25.40;99.90;;;;;;5072784;28;20024;-70
2023/03/27 00:52:58;;;;;;;9.70;7.30;;;25.30;99.90;;;;;;5072760;28;20406;-71
2023/03/27 00:55:29;;;;;;;7.00;5.72;;;25.20;99.90;;;;;;5072790;28;20025;-73
2023/03/27 00:58:00;;;;;;;10.95;5.32;;;25.20;99.90;;;;;;5072836;28;20035;-72
2023/03/27 01:00:28;;;;;;;5.07;4.57;;;25.30;99.90;;;;;;5071651;28;20025;-71
2023/03/27 01:02:55;;;;;;;7.20;4.18;;;25.30;99.90;;;;;;5072608;28;20037;-70
2023/03/27 01:05:21;;;;;;;4.50;3.40;;;25.30;99.90;;;;;;5072771;28;20543;-75
2023/03/27 01:07:49;;;;;;;7.43;4.22;;;25.40;99.90;;;;;;5074275;28;20021;-68
2023/03/27 01:10:17;;;;;;;7.63;5.93;;;25.50;99.90;;;;;;5076361;28;20032;-70
2023/03/27 01:12:55;;;;;;;9.02;7.20;;;25.50;99.90;;;;;;5076117;28;20040;-69
2023/03/27 01:15:24;;;;;;;7.05;3.65;;;25.60;99.90;;;;;;5076157;28;20394;-71
2023/03/27 01:17:53;;;;;;;4.10;2.95;;;25.60;99.90;;;;;;5076119;28;20024;-70
2023/03/27 01:20:24;;;;;;;4.07;3.00;;;25.60;99.90;;;;;;5076000;28;20034;-70
2023/03/27 01:22:54;;;;;;;4.85;3.78;;;25.70;99.90;;;;;;5075988;28;20052;-70
2023/03/27 01:25:26;;;;;;;4.43;3.75;;;25.70;99.90;;;;;;5075946;28;20025;-70
2023/03/27 01:28:01;;;;;;;5.95;4.55;;;25.80;99.90;;;;;;5075881;28;20025;-71
2023/03/27 01:30:47;;;;;;;5.10;4.45;;;25.80;99.90;;;;;;5072623;28;20024;-73
2023/03/27 01:33:17;;;;;;;7.72;5.03;;;25.90;99.90;;;;;;5055844;28;20021;-70
2023/03/27 01:35:48;;;;;;;14.30;11.98;;;25.90;99.90;;;;;;5055670;28;20029;-69
2023/03/27 01:38:20;;;;;;;10.82;8.77;;;25.90;99.90;;;;;;5070019;28;20103;-71
2023/03/27 01:40:55;;;;;;;8.82;7.93;;;25.90;99.90;;;;;;5075785;28;20111;-72
2023/03/27 01:43:31;;;;;;;9.00;8.07;;;25.90;99.90;;;;;;5075693;28;20028;-70
2023/03/27 01:46:07;;;;;;;10.13;8.30;;;26.00;99.90;;;;;;5069139;28;20116;-70
2023/03/27 01:48:38;;;;;;;11.30;9.68;;;26.00;99.90;;;;;;5057025;28;20025;-72
2023/03/27 01:51:15;;;;;;;11.45;9.45;;;26.00;99.90;;;;;;5054943;28;20013;-70
2023/03/27 01:53:48;;;;;;;11.05;9.20;;;26.10;99.90;;;;;;5055323;28;20103;-71
2023/03/27 01:56:24;;;;;;;12.65;9.10;;;26.20;99.90;;;;;;5055317;28;20025;-71
2023/03/27 01:58:56;;;;;;;9.93;7.97;;;26.20;99.90;;;;;;5055404;28;20079;-71
2023/03/27 02:01:30;;;;;;;10.38;8.35;;;26.20;99.90;;;;;;5055228;28;20025;-68
2023/03/27 02:04:01;;;;;;;8.75;7.85;;;26.20;99.90;;;;;;5055226;28;20033;-71
2023/03/27 02:06:43;;;;;;;15.05;9.82;;;26.30;99.90;;;;;;5055389;28;20029;-72
2023/03/27 02:09:21;;;;;;;16.63;10.68;;;26.30;99.90;;;;;;5055066;28;20017;-70
2023/03/27 02:11:55;;;;;;;23.10;16.80;;;26.40;99.90;;;;;;5055106;28;20024;-71
2023/03/27 02:14:29;;;;;;;15.07;12.00;;;26.40;99.90;;;;;;5055060;28;20037;-70
2023/03/27 02:16:59;;;;;;;12.80;10.65;;;26.40;99.90;;;;;;5054689;28;20025;-71
2023/03/27 02:19:33;;;;;;;14.35;10.48;;;26.40;99.90;;;;;;5054468;28;20068;-69
2023/03/27 02:22:01;;;;;;;18.38;14.35;;;26.50;99.90;;;;;;5054643;28;20407;-69
2023/03/27 02:24:27;;;;;;;15.43;11.30;;;26.50;99.90;;;;;;5054783;28;20072;-68
2023/03/27 02:27:03;;;;;;;13.90;11.98;;;26.60;99.90;;;;;;5054791;28;20439;-69
2023/03/27 02:29:44;;;;;;;16.70;13.27;;;26.60;99.90;;;;;;5058070;28;20393;-68
2023/03/27 02:32:16;;;;;;;17.93;12.20;;;26.70;99.90;;;;;;5060292;28;20021;-69
2023/03/27 02:34:45;;;;;;;13.25;11.05;;;26.70;99.90;;;;;;5054916;28;20414;-70
2023/03/27 02:37:35;;;;;;;13.60;11.45;;;26.70;99.90;;;;;;5054165;28;20477;-69
2023/03/27 02:40:09;;;;;;;17.45;11.50;;;26.70;99.90;;;;;;5054510;28;20064;-71
2023/03/27 02:42:41;;;;;;;16.45;13.18;;;26.80;99.90;;;;;;5054427;28;20021;-70
2023/03/27 02:45:15;;;;;;;15.02;10.70;;;26.80;99.90;;;;;;5054471;28;20039;-70
2023/03/27 02:47:48;;;;;;;11.05;8.48;;;26.90;99.90;;;;;;5054167;28;20025;-72
2023/03/27 02:50:25;;;;;;;9.25;6.97;;;26.90;99.90;;;;;;5054429;28;20025;-68
2023/03/27 02:52:56;;;;;;;12.68;7.85;;;26.90;99.90;;;;;;5054236;28;20390;-65
2023/03/27 02:55:38;;;;;;;11.15;9.30;;;27.00;99.90;;;;;;5054250;28;20046;-63
2023/03/27 02:58:11;;;;;;;15.90;10.13;;;27.00;99.90;;;;;;5054293;28;20029;-64
2023/03/27 03:00:43;;;;;;;12.40;10.27;;;27.10;99.90;;;;;;5058712;28;20378;-65
2023/03/27 03:03:29;;;;;;;11.63;9.02;;;27.10;99.90;;;;;;5066419;28;20036;-66
2023/03/27 03:06:14;;;;;;;12.98;7.95;;;27.20;99.90;;;;;;5067545;28;20111;-67
2023/03/27 03:08:41;;;;;;;9.70;7.63;;;27.20;99.90;;;;;;5053817;28;20029;-64
2023/03/27 03:11:11;;;;;;;9.55;7.53;;;27.30;99.90;;;;;;5054275;28;20025;-66
2023/03/27 03:13:37;;;;;;;12.52;9.55;;;27.30;99.90;;;;;;5054196;28;20041;-67
2023/03/27 03:16:04;;;;;;;16.10;10.93;;;27.30;99.90;;;;;;5053708;28;20048;-64
2023/03/27 03:18:31;;;;;;;13.75;10.85;;;27.40;99.90;;;;;;5053813;28;20029;-68
2023/03/27 03:20:58;;;;;;;18.13;11.60;;;27.40;99.90;;;;;;5053864;28;20044;-68
2023/03/27 03:23:25;;;;;;;21.25;11.75;;;27.50;99.90;;;;;;5053663;28;20029;-67
2023/03/27 03:25:55;;;;;;;13.93;8.88;;;27.60;99.90;;;;;;5053696;28;20541;-68
2023/03/27 03:28:24;;;;;;;17.00;11.00;;;27.60;99.90;;;;;;5053510;28;20029;-67
2023/03/27 03:30:52;;;;;;;18.90;12.80;;;27.70;99.90;;;;;;5052801;28;20028;-67
2023/03/27 03:33:20;;;;;;;15.80;10.95;;;27.70;99.90;;;;;;5053443;28;20109;-68
2023/03/27 03:35:49;;;;;;;17.88;10.82;;;27.80;99.90;;;;;;5053572;28;20079;-66
2023/03/27 03:38:23;;;;;;;19.13;11.23;;;27.80;99.90;;;;;;5035515;28;20028;-68
2023/03/27 03:40:52;;;;;;;16.23;11.70;;;27.90;99.90;;;;;;5063408;28;20099;-66
2023/03/27 03:43:20;;;;;;;14.60;11.05;;;28.00;99.90;;;;;;5054121;28;20383;-66
2023/03/27 03:45:47;;;;;;;21.08;11.20;;;28.10;99.90;;;;;;5053274;28;20090;-66
2023/03/27 03:48:13;;;;;;;14.13;11.13;;;28.20;99.90;;;;;;5053752;28;20108;-66
2023/03/27 03:50:44;;;;;;;23.20;14.50;;;28.30;99.90;;;;;;5053231;28;20059;-68
2023/03/27 03:53:11;;;;;;;23.05;15.65;;;28.30;99.90;;;;;;5053019;28;20070;-66
2023/03/27 03:55:38;;;;;;;23.60;18.30;;;28.30;99.90;;;;;;5053345;28;20105;-66
2023/03/27 03:58:05;;;;;;;27.02;18.77;;;28.40;99.90;;;;;;5053202;28;20025;-66
2023/03/27 04:00:37;;;;;;;25.42;18.75;;;28.50;99.90;;;;;;5053193;28;20086;-66
2023/03/27 04:03:06;;;;;;;21.67;18.70;;;28.60;99.90;;;;;;5053241;28;20371;-70
2023/03/27 04:05:33;;;;;;;21.27;18.25;;;28.70;99.90;;;;;;5053238;28;20254;-65
2023/03/27 04:08:01;;;;;;;22.27;16.77;;;28.80;99.90;;;;;;5053075;28;20441;-66
2023/03/27 04:10:29;;;;;;;22.02;18.25;;;28.70;99.90;;;;;;5058990;28;20111;-67
2023/03/27 04:12:57;;;;;;;23.25;18.30;;;28.70;99.90;;;;;;5057758;28;20131;-67
2023/03/27 04:15:24;;;;;;;24.00;19.13;;;28.70;99.90;;;;;;5053082;28;20059;-65
2023/03/27 04:17:51;;;;;;;21.80;17.02;;;28.80;99.90;;;;;;5062116;28;20021;-66
2023/03/27 04:20:17;;;;;;;18.70;16.70;;;28.80;99.90;;;;;;5074937;28;20052;-66
2023/03/27 04:22:46;;;;;;;19.40;16.40;;;28.80;99.90;;;;;;5082015;28;20019;-66
2023/03/27 04:25:15;;;;;;;18.42;14.80;;;28.90;99.90;;;;;;5083422;28;20541;-67
2023/03/27 04:27:43;;;;;;;17.98;15.13;;;28.90;99.90;;;;;;5083023;28;20020;-66
2023/03/27 04:30:12;;;;;;;15.85;11.52;;;29.00;99.90;;;;;;5081659;28;20020;-66
2023/03/27 04:32:40;;;;;;;17.00;9.25;;;29.10;99.90;;;;;;5079653;28;20027;-66
2023/03/27 04:35:09;;;;;;;12.15;7.72;;;29.00;99.90;;;;;;5082592;28;20044;-65
2023/03/27 04:37:40;;;;;;;10.10;8.02;;;29.00;99.90;;;;;;5082974;28;20643;-66
2023/03/27 04:40:09;;;;;;;10.27;8.52;;;29.10;99.90;;;;;;5081536;28;20027;-66
2023/03/27 04:42:48;;;;;;;6.55;5.93;;;29.10;99.90;;;;;;5086577;28;20104;-65
2023/03/27 04:45:19;;;;;;;9.00;6.15;;;29.20;99.90;;;;;;5087362;28;20016;-64
2023/03/27 04:47:47;;;;;;;7.55;6.80;;;29.20;99.90;;;;;;5085805;28;20385;-64
2023/03/27 04:50:15;;;;;;;10.77;7.05;;;29.30;99.90;;;;;;5081900;28;20034;-65
2023/03/27 04:52:42;;;;;;;7.70;4.93;;;29.30;99.90;;;;;;5088163;28;20024;-67
2023/03/27 04:55:11;;;;;;;5.93;4.70;;;29.30;99.90;;;;;;5086619;28;20473;-65
2023/03/27 04:57:38;;;;;;;8.15;4.70;;;29.30;99.90;;;;;;5084852;28;20020;-67
2023/03/27 05:00:33;;;;;;;5.60;4.47;;;29.30;99.90;;;;;;5086225;28;20025;-67
2023/03/27 05:02:54;;;;;;;6.28;4.13;;;29.30;99.90;;;;;;5077308;28;20542;-68
2023/03/27 05:05:21;;;;;;;4.97;4.05;;;29.30;99.90;;;;;;5082696;28;20027;-67
2023/03/27 05:07:49;;;;;;;5.00;3.85;;;29.30;99.90;;;;;;5085340;28;20016;-66
2023/03/27 05:10:16;;;;;;;3.47;3.00;;;29.30;99.90;;;;;;5086388;28;20028;-68
2023/03/27 05:12:47;;;;;;;8.27;2.88;;;29.40;99.90;;;;;;5084728;28;20115;-69
2023/03/27 05:15:15;;;;;;;4.88;3.20;;;29.50;99.90;;;;;;5084590;28;20036;-69
2023/03/27 05:17:44;;;;;;;7.95;3.92;;;29.50;99.90;;;;;;5086392;28;20013;-68
2023/03/27 05:20:14;;;;;;;5.80;4.07;;;29.60;99.90;;;;;;5086389;28;20016;-69
2023/03/27 05:22:42;;;;;;;7.03;4.30;;;29.70;99.90;;;;;;5088204;28;20020;-69
2023/03/27 05:25:10;;;;;;;5.78;4.32;;;29.80;99.90;;;;;;5083341;28;20137;-69
2023/03/27 05:27:38;;;;;;;6.93;4.22;;;29.80;99.90;;;;;;5085031;28;20111;-69
2023/03/27 05:30:06;;;;;;;5.10;4.05;;;29.80;99.90;;;;;;5085344;28;20031;-69
2023/03/27 05:32:34;;;;;;;8.82;4.25;;;29.80;99.90;;;;;;5083234;28;20013;-69
2023/03/27 05:35:00;;;;;;;6.93;4.53;;;29.90;99.90;;;;;;5078852;28;20479;-68
2023/03/27 05:37:27;;;;;;;5.38;4.22;;;29.90;99.90;;;;;;5084629;28;20035;-68
2023/03/27 05:39:54;;;;;;;6.63;4.60;;;30.00;99.90;;;;;;5085388;28;20107;-70
2023/03/27 05:42:20;;;;;;;5.35;4.45;;;30.00;99.90;;;;;;5083571;28;20017;-70
2023/03/27 05:44:47;;;;;;;5.88;4.10;;;30.00;99.90;;;;;;5077863;28;20016;-69
2023/03/27 05:47:14;;;;;;;6.70;4.50;;;30.00;99.90;;;;;;5083267;28;20089;-70
2023/03/27 05:49:40;;;;;;;5.47;4.10;;;30.10;99.90;;;;;;5078190;28;20465;-70
2023/03/27 05:52:07;;;;;;;6.38;5.07;;;30.10;99.90;;;;;;5085062;28;20108;-70
2023/03/27 05:54:33;;;;;;;9.10;4.70;;;30.00;99.90;;;;;;5080028;28;20566;-70
2023/03/27 05:57:00;;;;;;;6.43;4.05;;;30.00;99.90;;;;;;5083875;28;20021;-69
2023/03/27 05:59:27;;;;;;;6.40;3.70;;;30.20;99.90;;;;;;5083852;28;20024;-69
2023/03/27 06:01:53;;;;;;;6.13;3.70;;;30.20;99.90;;;;;;5083522;28;20023;-70
2023/03/27 06:04:21;;;;;;;5.53;3.70;;;30.20;99.90;;;;;;5083292;28;20392;-69
2023/03/27 06:06:47;;;;;;;8.18;3.83;;;30.30;99.90;;;;;;5081875;28;20110;-70
2023/03/27 06:09:14;;;;;;;5.05;3.72;;;30.30;99.90;;;;;;5083378;28;20020;-69
2023/03/27 06:11:41;;;;;;;10.95;6.63;;;30.30;99.90;;;;;;5083412;28;20012;-67
2023/03/27 06:14:08;;;;;;;6.45;4.40;;;30.50;99.90;;;;;;5084616;28;20088;-67
2023/03/27 06:16:34;;;;;;;5.47;4.32;;;30.50;99.90;;;;;;5083329;28;20017;-68
2023/03/27 06:19:01;;;;;;;7.03;3.60;;;30.50;99.90;;;;;;5083168;28;20097;-69
2023/03/27 06:21:28;;;;;;;9.15;6.28;;;30.50;99.90;;;;;;5072725;28;20029;-71
2023/03/27 06:23:55;;;;;;;33.95;21.73;;;30.60;99.90;;;;;;5083577;28;20027;-70
2023/03/27 06:26:21;;;;;;;12.05;9.43;;;30.70;99.90;;;;;;5079543;28;20025;-70
2023/03/27 06:28:48;;;;;;;9.98;4.20;;;30.80;99.90;;;;;;5082639;28;20044;-70
2023/03/27 06:31:16;;;;;;;10.82;4.95;;;30.90;99.90;;;;;;5084314;28;20019;-70
2023/03/27 06:33:42;;;;;;;11.40;7.40;;;31.00;99.90;;;;;;5084462;28;20024;-70
2023/03/27 06:36:09;;;;;;;5.00;3.90;;;31.10;99.90;;;;;;5082515;28;20248;-69
2023/03/27 06:38:36;;;;;;;8.15;6.13;;;31.20;99.90;;;;;;5084249;28;20419;-71
2023/03/27 06:41:03;;;;;;;6.88;4.90;;;31.20;99.90;;;;;;5084254;28;20027;-71
2023/03/27 06:43:30;;;;;;;5.65;3.58;;;31.40;99.90;;;;;;5082421;28;20021;-70
2023/03/27 06:45:56;;;;;;;18.05;7.55;;;31.40;99.90;;;;;;5076186;28;20028;-71
2023/03/27 06:48:23;;;;;;;5.63;3.63;;;31.40;99.90;;;;;;5065593;28;20025;-69
2023/03/27 06:50:51;;;;;;;5.68;2.67;;;31.60;99.90;;;;;;5078098;28;20059;-71
2023/03/27 06:53:18;;;;;;;9.98;6.25;;;31.70;99.90;;;;;;5082629;28;20031;-70
2023/03/27 06:55:46;;;;;;;11.90;5.82;;;31.90;99.90;;;;;;5079812;28;20489;-69
2023/03/27 06:58:12;;;;;;;8.00;5.05;;;31.70;99.90;;;;;;5083410;28;20016;-71
2023/03/27 07:00:40;;;;;;;6.18;4.25;;;31.80;99.90;;;;;;5083652;28;20028;-71
2023/03/27 07:03:09;;;;;;;7.13;2.53;;;31.80;99.90;;;;;;5054373;28;20037;-72
2023/03/27 07:05:38;;;;;;;8.82;2.67;;;31.80;99.90;;;;;;5052957;28;20166;-72
2023/03/27 07:08:09;;;;;;;8.30;3.45;;;31.80;99.90;;;;;;5054003;28;20056;-70
2023/03/27 07:10:36;;;;;;;9.38;5.22;;;31.80;99.90;;;;;;5054072;28;20017;-72
2023/03/27 07:13:02;;;;;;;6.35;4.53;;;31.80;99.90;;;;;;5053609;28;20505;-72
2023/03/27 07:15:29;;;;;;;11.55;6.50;;;31.70;99.90;;;;;;5053914;28;20025;-70
2023/03/27 07:18:00;;;;;;;6.53;3.53;;;31.60;99.90;;;;;;5060365;28;20082;-70
2023/03/27 07:20:29;;;;;;;4.63;2.90;;;31.70;99.90;;;;;;5073661;28;20090;-72
2023/03/27 07:22:57;;;;;;;6.50;3.03;;;31.70;99.90;;;;;;5073563;28;20028;-71
2023/03/27 07:25:40;;;;;;;21.00;8.07;;;31.60;99.90;;;;;;5073510;28;20036;-73
2023/03/27 07:28:11;;;;;;;8.85;4.07;;;31.70;99.90;;;;;;5073653;28;20476;-72
2023/03/27 07:30:38;;;;;;;4.82;2.50;;;31.60;99.90;;;;;;5073542;28;20477;-73
2023/03/27 07:33:08;;;;;;;5.30;2.55;;;31.50;99.90;;;;;;5073437;28;20017;-72
2023/03/27 07:35:37;;;;;;;8.18;2.92;;;31.40;99.90;;;;;;5060950;28;20075;-72
2023/03/27 07:38:04;;;;;;;7.65;3.67;;;31.40;99.90;;;;;;5054780;28;20078;-73
2023/03/27 07:40:32;;;;;;;13.27;5.40;;;31.50;99.90;;;;;;5080868;28;20469;-73
2023/03/27 07:42:58;;;;;;;15.10;7.40;;;31.50;99.90;;;;;;5083576;28;20072;-73
2023/03/27 07:45:25;;;;;;;10.43;4.28;;;31.50;99.90;;;;;;5081057;28;20067;-74
2023/03/27 07:47:52;;;;;;;9.65;4.00;;;31.50;99.90;;;;;;5073265;28;20027;-70
2023/03/27 07:50:20;;;;;;;3.55;3.03;;;31.50;99.90;;;;;;5073367;28;20093;-70
2023/03/27 07:52:48;;;;;;;6.47;3.35;;;31.50;99.90;;;;;;5073375;28;20028;-70
2023/03/27 07:55:18;;;;;;;12.20;5.07;;;31.50;99.90;;;;;;5073092;28;20151;-69
2023/03/27 07:57:47;;;;;;;5.10;3.58;;;31.50;99.90;;;;;;5073481;28;20031;-69
2023/03/27 08:00:16;;;;;;;7.32;4.85;;;31.50;99.90;;;;;;5073378;28;20102;-71
2023/03/27 08:02:45;;;;;;;14.77;6.13;;;31.50;99.90;;;;;;5073189;28;20028;-70
2023/03/27 08:05:12;;;;;;;8.77;5.50;;;31.50;99.90;;;;;;5073389;28;20024;-69
2023/03/27 08:07:41;;;;;;;19.40;10.75;;;31.50;99.90;;;;;;5072934;28;20021;-70
2023/03/27 08:10:08;;;;;;;10.75;2.75;;;31.50;99.90;;;;;;5073283;28;20021;-71
2023/03/27 08:12:35;;;;;;;8.40;3.55;;;31.50;99.90;;;;;;5072848;28;20072;-70
2023/03/27 08:15:02;;;;;;;6.28;3.47;;;31.50;99.90;;;;;;5072968;28;20023;-71
2023/03/27 08:17:31;;;;;;;8.00;3.88;;;31.50;99.90;;;;;;5076299;28;20432;-71
2023/03/27 08:19:59;;;;;;;9.40;4.05;;;31.50;99.90;;;;;;5083574;28;20031;-71
2023/03/27 08:22:25;;;;;;;5.82;3.47;;;31.50;99.90;;;;;;5085394;28;20016;-70
2023/03/27 08:24:52;;;;;;;7.75;2.90;;;31.50;99.90;;;;;;5087131;28;20016;-70
2023/03/27 08:27:18;;;;;;;3.47;2.80;;;31.50;99.90;;;;;;5074313;28;20037;-71
2023/03/27 08:29:45;;;;;;;4.97;2.63;;;31.50;99.90;;;;;;5064223;28;20424;-69
2023/03/27 08:32:11;;;;;;;5.00;3.00;;;31.50;99.90;;;;;;5056961;28;20163;-71
2023/03/27 08:34:39;;;;;;;4.75;2.25;;;31.50;99.90;;;;;;5056904;28;20486;-70
2023/03/27 08:37:07;;;;;;;3.63;2.28;;;31.50;99.90;;;;;;5056667;28;20079;-71
2023/03/27 08:39:34;;;;;;;5.80;2.80;;;31.50;99.90;;;;;;5056933;28;20033;-69
2023/03/27 08:42:04;;;;;;;5.97;3.38;;;31.50;99.90;;;;;;5056877;28;20028;-70
2023/03/27 08:44:33;;;;;;;7.03;2.90;;;31.50;99.90;;;;;;5056628;28;20478;-70
2023/03/27 08:47:08;;;;;;;4.80;3.10;;;31.50;99.90;;;;;;5056753;28;20047;-71
2023/03/27 08:49:39;;;;;;;14.45;7.25;;;31.50;99.90;;;;;;5056854;28;20033;-71
2023/03/27 08:52:14;;;;;;;8.13;4.47;;;31.50;99.90;;;;;;5056580;28;20520;-70
2023/03/27 08:54:44;;;;;;;14.65;9.52;;;31.50;99.90;;;;;;5056546;28;20021;-71
2023/03/27 08:57:18;;;;;;;13.75;5.85;;;31.50;99.90;;;;;;5056403;28;20028;-71
2023/03/27 08:59:46;;;;;;;11.23;4.78;;;31.50;99.90;;;;;;5056500;28;20025;-71
2023/03/27 09:02:16;;;;;;;6.40;3.70;;;31.50;99.90;;;;;;5056718;28;20422;-70
2023/03/27 09:04:42;;;;;;;4.93;2.97;;;31.50;99.90;;;;;;5056314;28;20029;-71
2023/03/27 09:07:11;;;;;;;12.95;5.97;;;31.50;99.90;;;;;;5056362;28;20017;-72
2023/03/27 09:09:38;;;;;;;6.20;3.30;;;31.50;99.90;;;;;;5056174;28;20024;-71
2023/03/27 09:12:26;;;;;;;7.13;3.53;;;31.50;99.90;;;;;;5070603;28;20024;-71
2023/03/27 09:15:00;;;;;;;5.53;3.22;;;31.50;99.90;;;;;;5058660;28;20060;-72
2023/03/27 09:17:42;;;;;;;15.38;3.40;;;31.50;99.90;;;;;;5082957;28;20028;-69
2023/03/27 09:20:22;;;;;;;4.72;3.05;;;31.50;99.90;;;;;;5083726;28;20044;-72
2023/03/27 09:22:54;;;;;;;9.25;3.58;;;31.50;99.90;;;;;;5065219;28;20434;-73
2023/03/27 09:25:27;;;;;;;8.30;4.55;;;31.50;99.90;;;;;;5084319;28;20021;-72
2023/03/27 09:27:53;;;;;;;10.48;3.47;;;31.50;99.90;;;;;;5083732;28;20027;-72
2023/03/27 09:30:26;;;;;;;6.78;3.65;;;31.50;99.90;;;;;;5086307;28;20087;-73
2023/03/27 09:32:58;;;;;;;7.47;4.30;;;31.50;99.90;;;;;;5085636;28;20474;-72
2023/03/27 09:35:25;;;;;;;9.02;4.55;;;31.50;99.90;;;;;;5082111;28;20101;-70
2023/03/27 09:37:57;;;;;;;5.50;3.13;;;31.40;99.90;;;;;;5105362;22;20052;-73
2023/03/27 09:40:32;;;;;;;7.60;3.25;;;31.40;99.90;;;;;;5081540;28;20607;-72
2023/03/27 09:43:07;;;;;;;8.43;2.63;;;31.40;99.90;;;;;;5084060;28;20039;-71
2023/03/27 09:45:37;;;;;;;9.75;4.43;;;31.40;99.90;;;;;;5084553;28;20016;-72
2023/03/27 09:48:11;;;;;;;9.88;4.35;;;31.40;99.90;;;;;;5081491;28;20078;-68
2023/03/27 09:50:45;;;;;;;19.95;7.38;;;31.30;99.90;;;;;;5084003;28;20029;-70
2023/03/27 09:53:12;;;;;;;25.70;8.10;;;31.30;99.90;;;;;;5083218;28;20032;-73
2023/03/27 09:56:01;;;;;;;18.83;6.22;;;31.30;99.90;;;;;;5083758;28;20393;-72
2023/03/27 09:58:28;;;;;;;29.00;7.75;;;31.20;99.90;;;;;;5080254;28;20061;-68
2023/03/27 10:01:14;;;;;;;16.08;4.70;;;31.20;99.90;;;;;;5084461;28;20086;-69
2023/03/27 10:03:48;;;;;;;10.93;5.20;;;31.20;99.90;;;;;;5073844;28;20532;-69
2023/03/27 10:06:37;;;;;;;7.80;3.25;;;31.20;99.90;;;;;;5084254;28;20129;-72
2023/03/27 10:09:17;;;;;;;12.23;4.25;;;31.10;99.90;;;;;;5080791;28;20416;-68
2023/03/27 10:11:43;;;;;;;12.38;4.03;;;31.10;99.90;;;;;;5081077;28;20036;-70
2023/03/27 10:14:16;;;;;;;12.40;3.90;;;31.10;99.90;;;;;;5085026;28;20024;-68
2023/03/27 10:16:44;;;;;;;10.40;5.03;;;31.00;99.90;;;;;;5082875;28;20019;-70
2023/03/27 10:19:20;;;;;;;13.35;4.93;;;31.00;99.90;;;;;;5081052;28;20437;-71
2023/03/27 10:21:47;;;;;;;10.68;6.55;;;31.00;99.90;;;;;;5083403;28;20056;-70
2023/03/27 10:24:16;;;;;;;16.88;7.15;;;31.00;99.90;;;;;;5074542;28;20021;-70
2023/03/27 10:26:45;;;;;;;24.05;7.05;;;31.00;99.90;;;;;;5064893;28;20025;-70
2023/03/27 10:29:34;;;;;;;11.52;5.72;;;31.00;99.90;;;;;;5060990;28;20066;-70
2023/03/27 10:32:03;;;;;;;12.13;6.15;;;30.90;99.90;;;;;;5057019;28;20029;-71
2023/03/27 10:34:33;;;;;;;17.33;6.43;;;31.00;99.90;;;;;;5057669;28;20016;-71
2023/03/27 10:37:00;;;;;;;15.20;6.40;;;30.90;99.90;;;;;;5056858;28;20041;-73
2023/03/27 10:39:34;;;;;;;14.00;7.07;;;30.80;99.90;;;;;;5059625;28;20037;-72
2023/03/27 10:42:08;;;;;;;29.25;12.85;;;30.80;99.90;;;;;;5064273;28;20025;-73
2023/03/27 10:44:37;;;;;;;30.10;16.05;;;30.80;99.90;;;;;;5059559;28;20028;-71
2023/03/27 10:47:14;;;;;;;32.00;15.20;;;30.70;99.90;;;;;;5054312;28;20036;-72
2023/03/27 10:49:45;;;;;;;23.42;13.25;;;30.70;99.90;;;;;;5054315;28;20116;-70
2023/03/27 10:52:16;;;;;;;27.33;11.00;;;30.70;99.90;;;;;;5059318;28;20032;-68
2023/03/27 10:54:50;;;;;;;19.05;10.80;;;30.70;99.90;;;;;;5058264;28;20017;-70
2023/03/27 10:57:17;;;;;;;27.98;14.48;;;30.60;99.90;;;;;;5058613;28;20017;-68
2023/03/27 10:59:49;;;;;;;33.35;16.30;;;30.60;99.90;;;;;;5064424;28;20025;-70
2023/03/27 11:02:16;;;;;;;;;;;30.60;99.90;;;;;;5061558;28;20024;-70
2023/03/27 11:04:48;;;;;;;40.40;21.20;;;30.60;99.90;;;;;;5063739;28;19989;-75
2023/03/27 11:07:21;;;;;;;30.70;17.05;;;30.60;99.90;;;;;;5060612;28;20021;-70
2023/03/27 11:10:01;;;;;;;30.58;16.90;;;30.60;99.90;;;;;;5061171;28;20017;-70
2023/03/27 11:12:30;;;;;;;34.40;15.98;;;30.60;99.90;;;;;;5063965;28;20023;-68
2023/03/27 11:15:03;;;;;;;38.83;16.67;;;30.60;99.90;;;;;;5067891;28;20470;-69
2023/03/27 11:17:38;;;;;;;48.22;28.13;;;30.60;99.90;;;;;;5060321;28;20025;-73
2023/03/27 11:20:15;;;;;;;41.72;23.08;;;30.50;99.90;;;;;;5054109;28;20049;-73
2023/03/27 11:22:47;;;;;;;44.63;27.52;;;30.60;99.90;;;;;;5053893;28;20531;-73
2023/03/27 11:25:18;;;;;;;24.10;13.63;;;30.50;99.90;;;;;;5053566;28;20068;-72
2023/03/27 11:27:49;;;;;;;33.08;21.83;;;30.50;99.90;;;;;;5058493;28;20035;-71
2023/03/27 11:30:19;;;;;;;21.73;10.37;;;30.50;99.90;;;;;;5059039;28;20025;-73
2023/03/27 11:33:17;;;;;;;21.70;11.60;;;30.50;99.90;;;;;;5061476;28;20021;-72
2023/03/27 11:35:53;;;;;;;16.88;10.23;;;30.40;99.90;;;;;;5061859;28;20021;-73
2023/03/27 11:38:30;;;;;;;11.13;5.95;;;30.40;99.90;;;;;;5058012;28;20036;-71
2023/03/27 11:40:57;;;;;;;17.83;8.82;;;30.40;99.90;;;;;;5056098;28;20569;-73
2023/03/27 11:43:24;;;;;;;19.20;11.07;;;30.30;99.90;;;;;;5058937;28;20020;-74
2023/03/27 11:45:55;;;;;;;320.10;206.95;;;30.30;99.90;;;;;;5059827;28;20114;-73
2023/03/27 11:48:37;;;;;;;67.00;42.90;;;30.20;99.90;;;;;;5064433;28;20150;-72
2023/03/27 11:51:06;;;;;;;42.83;22.77;;;30.30;99.90;;;;;;5057593;28;20037;-73
2023/03/27 11:53:36;;;;;;;48.08;24.33;;;30.30;99.90;;;;;;5061691;28;20028;-72
2023/03/27 11:56:08;;;;;;;43.88;22.55;;;30.20;99.90;;;;;;5058589;28;20024;-73
2023/03/27 11:58:36;;;;;;;54.92;27.40;;;30.20;99.90;;;;;;5064899;28;20031;-70
2023/03/27 12:01:28;;;;;;;57.17;25.25;;;30.10;99.90;;;;;;5059110;28;20033;-70
2023/03/27 12:03:58;;;;;;;62.83;27.02;;;30.10;99.90;;;;;;5013655;28;20401;-68
2023/03/27 12:06:36;;;;;;;61.67;24.20;;;30.00;99.90;;;;;;5061468;28;20036;-71
2023/03/27 12:09:04;;;;;;;58.08;26.05;;;30.00;99.90;;;;;;5057158;28;20193;-70
2023/03/27 12:11:37;;;;;;;47.38;24.55;;;30.00;99.90;;;;;;5064476;28;20071;-69
2023/03/27 12:14:14;;;;;;;41.17;19.98;;;30.00;99.90;;;;;;5057407;28;20028;-71
2023/03/27 12:16:45;;;;;;;28.83;18.35;;;29.90;99.90;;;;;;5047933;28;20020;-70
2023/03/27 12:19:18;;;;;;;19.02;13.05;;;30.00;99.90;;;;;;5064433;28;20029;-71
2023/03/27 12:21:55;;;;;;;23.35;12.90;;;30.00;99.90;;;;;;5060684;28;20112;-72
2023/03/27 12:24:23;;;;;;;24.50;13.85;;;30.00;99.90;;;;;;5058145;28;20078;-72
2023/03/27 12:26:56;;;;;;;19.98;11.77;;;30.00;99.90;;;;;;5062869;28;20386;-73
2023/03/27 12:29:44;;;;;;;25.48;12.95;;;29.90;99.90;;;;;;5061138;28;20021;-74
2023/03/27 12:32:13;;;;;;;26.85;12.45;;;29.90;99.90;;;;;;5014604;28;20037;-73
2023/03/27 12:34:42;;;;;;;14.70;8.50;;;29.80;99.90;;;;;;5058147;28;20021;-72
2023/03/27 12:37:12;;;;;;;25.52;11.48;;;29.80;99.90;;;;;;5052030;28;20250;-72
2023/03/27 12:39:44;;;;;;;16.60;9.38;;;29.90;99.90;;;;;;5054164;28;20036;-72
2023/03/27 12:42:14;;;;;;;21.02;10.00;;;29.80;99.90;;;;;;5052478;28;20028;-73
2023/03/27 12:45:22;;;;;;;18.50;9.50;;;29.80;99.90;;;;;;5056599;28;20036;-73
2023/03/27 12:47:54;;;;;;;271.73;204.85;;;29.80;99.90;;;;;;5061174;28;20047;-72
2023/03/27 12:50:26;;;;;;;37.17;20.55;;;29.70;99.90;;;;;;5058613;28;20044;-72
2023/03/27 12:52:52;;;;;;;;;;;29.70;99.90;;;;;;5057101;28;20032;-71
2023/03/27 12:55:18;;;;;;;17.60;8.85;;;29.70;99.90;;;;;;5055994;28;20293;-72